Airfield :
LOGIN :

Register | Disclaimer

   EN    FR    IT 

 










Legend :    VFR   Marginal VFR   IFR   Intensive IFR   Very Intensive IFR
Visi :
Ceiling :
>= 8 km
>= 3000ft
5 to 8 km
1000 to 3000 ft
1500m to 5 km
500 to 1000 ft
800 to 1500m
200 to 500 ft
< 800m
< 200 ft
Symbols :   Thunderstorms  Fog  Heavy snow  Heavy precipitations  Wind > 20 kt
SIGMETs :     Misc.  Thunderstorms  Icing  Turbulence  Mountain Waves  Volcanic Ashes






- Airport Elevation : 238 ft
- IATA code : FAB


EGLF - Farnborough

CURRENT METAR :
  • 311320Z 21017KT 9000 -DZ SCT013 BKN024 15/13 Q1005 RERA REDZ

EXPIRED METARs :
  • 311250Z 21016KT 4500 RADZ BKN011CB BKN018 14/13 Q1006
  • 311220Z 19018G30KT 4800 RADZ BKN006 BKN010CB 14/13 Q1006
  • 311150Z 19018KT 2200 RADZ BKN006 BKN010CB 14/13 Q1006
  • 311120Z 18018KT 6000 -DZ BKN010 BKN017 13/12 Q1007 REDZ RERA
  • 311050Z 18015G27KT 140V210 5000 DZRA BKN011 BKN016 14/12 Q1007
  • 311020Z 17016G27KT 6000 -DZRA BKN014 BKN020 14/12 Q1008 REDZ RERA

TAF TAF EGLF
Valid from the 31 at 12:00 until the 31 at 20:00 UTC


311106Z 3112/3120 18018G30KT 9999 SCT012
TEMPO 3112/3114 6000 RA BKN012
PROB30
TEMPO 3112/3114 3500 +RA BKN009
BECMG 3113/3116 25010KT
ATIS : +44 09063 800 400 (*282)



MET'MAP, your aeronautical weather chart ! - Copyright ORBIFLY December 2007 - Disclaimer

ORBIFLY MET'MAP TEAM :

Programming & Development : Alexandra Zaïnal
Concept & original design : Baudouin d'Aumeries
Assistance for programming : Marc-Olivier Méhu
Technical & hardware support : Manuel Goepfert

Contact : metmap@orbifly.com




SOURCES & CREDITS :

   NOAA